Time;durP1;ratioP1;P1;durP2;ratioP2;P2;SDS_P1;SDS_P2;PMS_P1;PMS_P2;Temp;Humidity;BMP_temperature;BMP_pressure;BME280_temperature;BME280_humidity;BME280_pressure;Samples;Min_cycle;Max_cycle;Signal;HPM_P1;HPM_P2
2023/05/05 00:00:55;;;;;;;59.70;34.10;;;6.50;99.90;;;;;;25971757;22;20070;-51
2023/05/05 00:10:56;;;;;;;49.38;32.15;;;6.50;99.90;;;;;;25971447;22;20050;-50
2023/05/05 00:20:58;;;;;;;58.80;35.75;;;6.50;99.90;;;;;;25970706;22;20084;-49
2023/05/05 00:31:00;;;;;;;63.78;38.40;;;6.50;99.90;;;;;;25970559;22;20335;-49
2023/05/05 00:41:01;;;;;;;60.38;37.35;;;6.60;99.90;;;;;;25944908;22;20004;-50
2023/05/05 00:51:07;;;;;;;63.45;37.95;;;6.50;99.90;;;;;;25944603;22;20324;-50
2023/05/05 01:01:10;;;;;;;71.10;41.17;;;6.40;99.90;;;;;;25984588;22;20010;-50
2023/05/05 01:11:43;;;;;;;70.18;39.97;;;6.30;99.90;;;;;;25968874;22;20000;-49
2023/05/05 01:21:52;;;;;;;68.68;37.92;;;6.40;99.90;;;;;;25957670;22;20046;-50
2023/05/05 01:31:59;;;;;;;49.63;29.85;;;6.30;99.90;;;;;;26010449;22;20014;-47
2023/05/05 01:42:05;;;;;;;50.63;32.30;;;6.30;99.90;;;;;;26008420;22;20061;-50
2023/05/05 01:52:08;;;;;;;57.75;35.28;;;6.30;99.90;;;;;;26009592;22;20012;-58
2023/05/05 02:02:12;;;;;;;55.85;35.08;;;6.30;99.90;;;;;;25966644;22;20496;-58
2023/05/05 02:12:15;;;;;;;57.75;34.13;;;6.50;99.90;;;;;;25966443;22;20000;-51
2023/05/05 02:22:16;;;;;;;55.03;34.08;;;6.50;99.90;;;;;;25938854;22;20085;-50
2023/05/05 02:32:38;;;;;;;57.38;32.70;;;6.40;99.90;;;;;;25965867;22;20003;-58
2023/05/05 02:42:45;;;;;;;54.47;34.30;;;6.40;99.90;;;;;;25976414;22;20012;-48
2023/05/05 02:52:47;;;;;;;40.75;27.38;;;6.60;99.90;;;;;;25980326;22;20015;-51
2023/05/05 03:03:05;;;;;;;49.67;31.60;;;6.50;99.90;;;;;;25938173;22;20004;-47
2023/05/05 03:13:10;;;;;;;47.70;31.00;;;6.40;99.90;;;;;;25980308;22;20385;-58
2023/05/05 03:23:21;;;;;;;39.05;26.67;;;6.40;99.90;;;;;;25979921;22;20004;-51
2023/05/05 03:33:26;;;;;;;40.80;26.98;;;6.50;99.90;;;;;;25986942;22;20010;-50
2023/05/05 03:43:30;;;;;;;31.48;21.02;;;6.60;99.90;;;;;;25945638;22;20129;-47
2023/05/05 03:53:32;;;;;;;27.42;18.80;;;6.70;99.90;;;;;;25971452;22;20011;-49
2023/05/05 04:03:37;;;;;;;32.08;21.73;;;6.80;99.90;;;;;;25944950;22;20431;-49
2023/05/05 04:13:40;;;;;;;30.38;22.17;;;6.80;99.90;;;;;;25971352;22;20304;-47
2023/05/05 04:23:42;;;;;;;36.97;25.48;;;6.80;99.90;;;;;;25943810;22;20003;-46
2023/05/05 04:33:44;;;;;;;43.63;28.48;;;6.80;99.90;;;;;;25943271;22;20423;-48
2023/05/05 04:43:46;;;;;;;35.78;25.17;;;6.80;99.90;;;;;;25943174;22;20011;-51
2023/05/05 04:53:49;;;;;;;45.65;29.02;;;6.80;99.90;;;;;;25942460;22;20020;-50
2023/05/05 05:03:52;;;;;;;45.60;29.50;;;6.80;99.90;;;;;;25969633;22;20007;-58
2023/05/05 05:13:54;;;;;;;43.08;27.55;;;7.00;99.90;;;;;;25969018;22;20007;-50
2023/05/05 05:23:55;;;;;;;32.45;22.88;;;7.20;99.90;;;;;;25968312;22;20053;-50
2023/05/05 05:33:57;;;;;;;28.00;20.10;;;7.50;99.90;;;;;;25940799;22;20302;-49
2023/05/05 05:43:59;;;;;;;25.45;18.70;;;7.70;99.90;;;;;;25940319;22;20008;-51
2023/05/05 05:54:02;;;;;;;22.77;16.90;;;8.00;99.90;;;;;;25939308;22;20003;-52
2023/05/05 06:04:04;;;;;;;21.75;14.10;;;8.30;99.90;;;;;;25939568;22;20062;-46
2023/05/05 06:14:06;;;;;;;22.30;16.65;;;8.80;99.90;;;;;;25938067;22;20004;-49
2023/05/05 06:24:08;;;;;;;13.43;10.90;;;9.30;99.90;;;;;;25938798;22;20061;-52
2023/05/05 06:34:11;;;;;;;9.95;8.48;;;11.20;99.90;;;;;;25937327;22;20003;-50
2023/05/05 06:44:12;;;;;;;9.13;8.20;;;15.10;99.90;;;;;;25936917;22;20011;-63
2023/05/05 06:54:16;;;;;;;8.98;8.07;;;17.20;99.90;;;;;;25965222;22;20397;-52
2023/05/05 07:04:20;;;;;;;8.13;6.05;;;18.70;99.90;;;;;;25963291;22;20012;-53
2023/05/05 07:14:21;;;;;;;7.65;6.93;;;19.60;99.90;;;;;;25936418;22;20038;-52
2023/05/05 07:24:23;;;;;;;6.28;5.68;;;20.00;99.90;;;;;;25964154;22;20004;-52
2023/05/05 07:34:25;;;;;;;7.50;6.80;;;20.10;99.90;;;;;;25963012;22;20003;-52
2023/05/05 07:44:26;;;;;;;10.05;9.05;;;20.00;99.90;;;;;;25963806;22;20011;-61
2023/05/05 07:54:31;;;;;;;11.30;10.15;;;18.90;99.90;;;;;;25963668;22;20012;-48
2023/05/05 08:04:32;;;;;;;9.45;8.45;;;18.90;99.90;;;;;;25962997;22;19999;-60
2023/05/05 08:14:35;;;;;;;8.10;7.30;;;19.60;99.90;;;;;;25964058;22;20049;-61
2023/05/05 08:24:36;;;;;;;8.57;7.68;;;20.00;99.90;;;;;;25969896;22;20435;-61
2023/05/05 08:34:38;;;;;;;10.68;9.57;;;19.50;99.90;;;;;;25970104;22;20010;-61
2023/05/05 08:44:40;;;;;;;10.82;9.80;;;18.90;99.90;;;;;;25971658;22;20008;-61
2023/05/05 08:54:56;;;;;;;11.45;10.35;;;19.80;99.90;;;;;;25969502;22;20016;-61
2023/05/05 09:04:59;;;;;;;11.27;10.18;;;20.60;99.90;;;;;;26010629;22;20011;-60
2023/05/05 09:15:02;;;;;;;13.02;11.73;;;21.10;99.90;;;;;;25968858;22;20011;-61
2023/05/05 09:25:06;;;;;;;16.95;14.18;;;21.10;99.90;;;;;;25967930;22;20011;-62
2023/05/05 09:35:07;;;;;;;14.63;13.02;;;21.60;99.90;;;;;;25967680;22;20003;-61
2023/05/05 09:45:18;;;;;;;13.18;11.07;;;21.80;99.90;;;;;;25967203;22;20454;-51
2023/05/05 09:55:20;;;;;;;16.80;12.60;;;22.40;99.90;;;;;;25965700;22;20563;-50
2023/05/05 10:05:22;;;;;;;13.68;12.18;;;22.70;99.90;;;;;;25965764;22;20026;-61
2023/05/05 10:15:24;;;;;;;18.17;13.63;;;22.30;99.40;;;;;;25966373;22;20009;-61
2023/05/05 10:25:32;;;;;;;13.93;12.30;;;20.60;99.90;;;;;;25966199;22;19999;-62
2023/05/05 10:35:36;;;;;;;;;;;21.20;99.90;;;;;;26007676;22;20004;-63
2023/05/05 10:45:39;;;;;;;17.40;14.75;;;20.10;99.90;;;;;;25964881;22;19911;-62
2023/05/05 10:55:56;;;;;;;14.45;12.95;;;20.20;99.90;;;;;;25965124;22;20377;-61
2023/05/05 11:06:03;;;;;;;13.43;12.02;;;20.40;99.90;;;;;;26006860;22;20011;-62
2023/05/05 11:16:41;;;;;;;12.15;9.98;;;21.10;99.90;;;;;;25964777;22;20408;-62
2023/05/05 11:26:50;;;;;;;12.47;10.23;;;22.30;99.90;;;;;;25963872;22;20004;-62
2023/05/05 11:36:56;;;;;;;12.82;10.75;;;22.20;99.90;;;;;;25965208;22;20008;-61
2023/05/05 11:47:00;;;;;;;13.77;12.18;;;21.90;99.90;;;;;;25988192;22;20047;-62
2023/05/05 11:57:07;;;;;;;14.45;12.95;;;21.90;99.90;;;;;;25971497;22;20106;-63
2023/05/05 12:07:17;;;;;;;15.25;13.65;;;22.00;99.90;;;;;;25984923;22;20000;-63
2023/05/05 12:17:19;;;;;;;16.02;12.63;;;21.80;99.90;;;;;;26012353;22;20004;-62
2023/05/05 12:27:21;;;;;;;16.40;13.18;;;21.70;99.90;;;;;;25968852;22;20007;-63
2023/05/05 12:37:25;;;;;;;14.90;12.18;;;21.50;99.90;;;;;;25969590;22;20003;-63
2023/05/05 12:47:31;;;;;;;14.80;13.10;;;21.60;99.90;;;;;;25969128;22;20015;-65
2023/05/05 12:57:32;;;;;;;12.18;10.98;;;21.90;99.90;;;;;;26010447;22;20004;-64
2023/05/05 13:07:34;;;;;;;11.63;10.43;;;22.10;99.90;;;;;;25968427;22;20030;-63
2023/05/05 13:17:35;;;;;;;12.27;10.55;;;22.50;99.90;;;;;;25967689;22;20326;-63
2023/05/05 13:27:37;;;;;;;13.45;12.15;;;22.50;99.90;;;;;;25966938;22;20010;-64
2023/05/05 13:37:38;;;;;;;13.93;12.27;;;22.70;99.90;;;;;;25966406;22;20097;-64
2023/05/05 13:47:41;;;;;;;15.55;13.30;;;22.40;99.90;;;;;;25967321;22;20007;-51
2023/05/05 13:57:43;;;;;;;14.55;11.90;;;22.10;99.70;;;;;;25965755;22;20007;-51
2023/05/05 14:07:45;;;;;;;13.65;11.55;;;21.50;99.90;;;;;;25963710;22;20059;-64
2023/05/05 14:17:47;;;;;;;13.93;12.32;;;21.30;99.90;;;;;;25965216;22;20083;-51
2023/05/05 14:27:48;;;;;;;11.27;10.07;;;21.30;99.90;;;;;;25965729;22;20030;-48
2023/05/05 14:37:50;;;;;;;10.57;9.57;;;21.40;99.90;;;;;;25964976;22;20008;-63
2023/05/05 14:47:52;;;;;;;10.50;9.50;;;21.80;99.30;;;;;;25964653;22;20012;-65
2023/05/05 14:57:54;;;;;;;11.68;9.95;;;21.90;99.20;;;;;;25964625;22;20455;-67
2023/05/05 15:07:55;;;;;;;12.75;11.10;;;21.60;99.40;;;;;;25964693;22;20022;-67
2023/05/05 15:17:57;;;;;;;14.18;12.25;;;21.30;98.40;;;;;;25964279;22;20007;-64
2023/05/05 15:27:59;;;;;;;13.20;11.85;;;21.30;98.80;;;;;;25971072;22;19999;-64
2023/05/05 15:38:02;;;;;;;13.23;11.93;;;20.40;99.50;;;;;;25972664;22;20003;-64
2023/05/05 15:48:04;;;;;;;15.05;13.55;;;19.90;99.90;;;;;;25971651;22;20035;-64
2023/05/05 15:58:05;;;;;;;14.65;12.85;;;19.30;99.90;;;;;;25971470;22;20012;-63
2023/05/05 16:08:09;;;;;;;15.65;13.77;;;18.40;99.90;;;;;;25970274;22;20007;-64
2023/05/05 16:18:10;;;;;;;15.90;14.20;;;17.70;99.90;;;;;;25968110;22;20030;-63
2023/05/05 16:28:12;;;;;;;16.80;14.93;;;17.20;99.90;;;;;;25962736;22;20012;-53
2023/05/05 16:38:14;;;;;;;15.15;12.23;;;17.20;99.90;;;;;;25965861;22;20007;-53
2023/05/05 16:48:17;;;;;;;13.85;12.35;;;16.90;99.90;;;;;;25969666;22;20012;-62
2023/05/05 16:58:22;;;;;;;17.23;13.23;;;16.10;99.90;;;;;;25969191;22;19999;-56
2023/05/05 17:08:23;;;;;;;15.25;12.80;;;15.20;99.90;;;;;;25969184;22;20125;-63
2023/05/05 17:18:25;;;;;;;17.58;14.50;;;14.60;99.90;;;;;;25968599;22;19999;-54
2023/05/05 17:28:27;;;;;;;19.73;15.02;;;13.90;99.90;;;;;;25968028;22;20004;-62
2023/05/05 17:38:28;;;;;;;22.90;16.70;;;13.40;99.90;;;;;;25966890;22;20304;-51
2023/05/05 17:48:30;;;;;;;22.65;17.17;;;12.70;99.90;;;;;;25966862;22;20003;-61
2023/05/05 17:58:32;;;;;;;17.60;14.07;;;12.10;99.90;;;;;;25966802;22;20060;-60
2023/05/05 18:08:34;;;;;;;19.75;14.18;;;11.60;99.90;;;;;;25966612;22;20011;-53
2023/05/05 18:18:36;;;;;;;16.42;12.77;;;11.10;99.90;;;;;;25966183;22;20497;-61
2023/05/05 18:28:37;;;;;;;21.88;15.00;;;10.60;99.90;;;;;;25965553;22;20003;-51
2023/05/05 18:38:39;;;;;;;19.75;13.93;;;10.40;99.90;;;;;;25964554;22;20029;-57
2023/05/05 18:48:41;;;;;;;23.95;15.10;;;10.00;99.90;;;;;;25965024;22;20014;-60
2023/05/05 18:58:43;;;;;;;23.58;17.30;;;9.60;99.90;;;;;;25964453;22;20022;-61
2023/05/05 19:08:45;;;;;;;25.30;18.95;;;9.40;99.90;;;;;;25962562;22;20007;-53
2023/05/05 19:18:46;;;;;;;26.52;19.27;;;9.20;99.90;;;;;;25964092;22;20324;-54
2023/05/05 19:28:49;;;;;;;28.08;20.02;;;9.10;99.90;;;;;;25936539;22;20004;-54
2023/05/05 19:38:50;;;;;;;33.33;23.23;;;9.10;99.90;;;;;;25962669;22;20148;-54
2023/05/05 19:48:52;;;;;;;31.55;22.45;;;8.90;99.90;;;;;;25963433;22;20104;-52
2023/05/05 19:58:56;;;;;;;35.67;23.42;;;8.70;99.90;;;;;;25963290;22;20014;-52
2023/05/05 20:08:58;;;;;;;27.25;18.52;;;8.70;99.90;;;;;;25964478;22;20007;-60
2023/05/05 20:19:00;;;;;;;37.13;24.63;;;8.50;99.90;;;;;;25970880;22;20042;-59
2023/05/05 20:29:01;;;;;;;30.98;21.45;;;8.50;99.90;;;;;;25970461;22;20312;-60
2023/05/05 20:39:03;;;;;;;36.78;24.10;;;8.40;99.90;;;;;;25970534;22;20334;-59
2023/05/05 20:49:05;;;;;;;35.08;23.60;;;8.30;99.90;;;;;;25968525;22;20066;-53
2023/05/05 20:59:07;;;;;;;40.05;25.60;;;8.20;99.90;;;;;;25967545;22;20004;-59
2023/05/05 21:09:08;;;;;;;42.38;27.83;;;8.10;99.90;;;;;;25968941;22;20004;-50
2023/05/05 21:19:10;;;;;;;34.67;24.17;;;8.10;99.90;;;;;;25968414;22;20065;-53
2023/05/05 21:29:12;;;;;;;37.53;25.50;;;8.10;99.90;;;;;;25967587;22;20004;-52
2023/05/05 21:39:13;;;;;;;35.83;25.58;;;8.10;99.90;;;;;;25967928;22;20012;-60
2023/05/05 21:49:16;;;;;;;37.67;24.48;;;8.20;99.90;;;;;;25966912;22;20105;-51
2023/05/05 21:59:18;;;;;;;30.25;20.92;;;8.50;99.90;;;;;;25966262;22;20023;-60
2023/05/05 22:09:20;;;;;;;38.83;25.52;;;8.30;99.90;;;;;;25966368;22;20000;-52
2023/05/05 22:19:22;;;;;;;40.83;26.65;;;8.10;99.90;;;;;;25966324;22;20509;-53
2023/05/05 22:29:24;;;;;;;38.60;25.73;;;7.90;99.90;;;;;;25965687;22;20019;-60
2023/05/05 22:39:25;;;;;;;41.03;27.15;;;7.70;99.90;;;;;;25965413;22;20004;-53
2023/05/05 22:49:28;;;;;;;38.20;25.52;;;7.60;99.90;;;;;;25965171;22;20114;-49
2023/05/05 22:59:34;;;;;;;40.63;26.05;;;7.50;99.90;;;;;;25962650;22;20018;-52
2023/05/05 23:09:35;;;;;;;39.22;24.88;;;7.50;99.90;;;;;;25964246;22;20003;-52
2023/05/05 23:19:37;;;;;;;52.60;31.08;;;7.30;99.90;;;;;;25964288;22;20049;-59
2023/05/05 23:29:39;;;;;;;49.95;30.88;;;7.20;99.90;;;;;;25964017;22;20053;-60
2023/05/05 23:39:41;;;;;;;56.85;34.35;;;7.30;99.90;;;;;;25963859;22;20053;-59
2023/05/05 23:49:43;;;;;;;53.13;33.95;;;7.40;99.90;;;;;;25969041;22;20446;-51
2023/05/05 23:59:45;;;;;;;53.53;34.15;;;7.50;99.90;;;;;;25971613;22;20065;-51
